Aérodrome :
LOGIN :

S'inscrire | Disclaimer

   EN    FR    IT 

 










Légende :    VFR   VFR Marginal   IFR   IFR Intensif   IFR Très Intensif
Visi : 
Plafond : 
>= 8 km
>= 3000ft
5 à 8 km
1000 à 3000 ft
1500m à 5 km
500 à 1000 ft
800 à 1500m
200 à 500 ft
< 800m
< 200 ft
Symboles :   Orages  Brouillard  Fortes neiges  Fortes précipitations  Vent > 20 kt
SIGMETs :   Divers  Orages  Givrage  Turbulence  Onde Orograph.  Cendres Volcan.







- Altitude de l'aérodrome : 353 ft
- Code IATA : ZAG


LDZA - Zagreb Pleso

DERNIER METAR :
  • 220000Z VRB02KT CAVOK 01/M03 Q1017 NOSIG

METARs EXPIRÉS :
  • 212330Z VRB01KT 9999 FEW045 00/M03 Q1018 NOSIG
  • 212300Z 00000KT 9999 FEW045 01/M03 Q1018 NOSIG
  • 212230Z 05003KT 350V060 9999 FEW045 01/M03 Q1018 NOSIG
  • 212200Z 05005KT 030V090 9999 FEW045 02/M03 Q1017 NOSIG
  • 212130Z 05008KT 010V080 9999 SCT045 02/M02 Q1016 NOSIG

TAF TAF LDZA
Valide du 22 à 00h jusqu'au 23 à 00h UTC


212325Z 2200/2300 VRB02KT CAVOK TX05/2212Z TNM03/2204Z
PROB40
TEMPO 2200/2204 05007KT
PROB30
TEMPO 2204/2208 3000 BR
ATIS : +385 1 6-259-214
Pas de NOTAMs connus pour ce terrain.
3 SIGMETs publiés pour la FIR Zagreb (LDZO) :
 
Turbulence forte
LDZO SIGMET 9 VALID 212130/220000 LDZA
LDZO ZAGREB FIR SEV TURB FCST E OF E01841 FL210/290 MOV E 10KT WKN=
Turbulence forte
LDZO SIGMET 8 VALID 212100/220000 LDZA
LDZO ZAGREB FIR SEV TURB FCST WI N4229 E01834 - N4200 E01826 - N4257 E01616 - N4327 E01716 - N4229 E01834 SFC/6000FT STNR NC=
Turbulence forte
LDZO SIGMET 10 VALID 220000/220400 LDZA
LDZO ZAGREB FIR SEV TURB FCST WI N4229 E01834 - N4200 E01826 - N4257 E01616 - N4327 E01716 - N4229 E01834 SFC/6000FT STNR NC=



MET'MAP, la Météo Aéronautique d'un coup d'oeil ! - Copyright ORBIFLY Décembre 2007 - Disclaimer

ORBIFLY MET'MAP TEAM :

Programmation & Développement : Alexandra Zaïnal
Conception & Développement : Baudouin d'Aumeries
Co-Programmation & Développement : Marc-Olivier Méhu
Soutien technique & logistique : Manuel Goepfert

Contact : metmap@orbifly.com




SOURCES & CREDITS :

   NOAA